首页
METAR-TAF:

METAR-TAF

机场 :

亞維農, 法国

纬度: 43-54-26N, 经度: 004-54-07E, 海拔: 38米

当前天气观测

该预报发布于39分钟前的18:00 UTC
风速11节,风向,在北转西北东北之间变化
温度 18°C
湿度 73%
气压 999 hPa
能见度10公里或以上
小雨, 附近有雷暴

METAR: LFMV 041800Z AUTO 01011KT 340V050 9999 -RA VCTS FEW042/// SCT049/// BKN060/// ///CB 18/13 Q0999 BECMG NSW NSC

时间: 20:39 (18:39 UTC)

预报

该预报发布于4小时和39分钟前的14:00 UTC
预报有效从04日的 15点(UTC)到 05日的 15点(UTC)
风速5节,风向
能见度10公里或以上
散云层高于3000英尺
多云层高于6000英尺
成为
从 04日的 16点(UTC)到 04日的 18点(UTC)
能见度10公里或以上
1500米以下无云,无积雨云

TAF: LFMV 041400Z 0415/0515 35005KT 9999 SCT030 BKN060 BECMG 0416/0418 CAVOK

超过4000个机场的气象观测和天气预报(METAR&TAF报告)。

可查询的气象台以黄色和红色小点在地图上表示。

将鼠标移到小点上方,可查看气象台名称。

然后点击查看天气观测和预报。

如需切换地图:点击带黑十字的绿色按钮放大地图;点击带横线的绿色按钮缩小地图;或者点击绿色箭头查看邻近地区的地图。


METAR-TAF: